createdAt,value
2019-01-20T00:00:44.373Z,99.75
2019-01-20T00:01:44.370Z,98.61
2019-01-20T00:02:44.376Z,98.71
2019-01-20T00:03:44.381Z,97.96
2019-01-20T00:04:44.389Z,98.52
2019-01-20T00:05:44.401Z,98.90
2019-01-20T00:06:44.407Z,99.27
2019-01-20T00:07:44.416Z,99.99
2019-01-20T00:08:44.421Z,99.99
2019-01-20T00:09:44.440Z,99.99
2019-01-20T00:10:44.434Z,99.75
2019-01-20T00:11:44.445Z,98.61
2019-01-20T00:12:44.450Z,98.61
2019-01-20T00:13:44.454Z,97.96
2019-01-20T00:14:44.462Z,98.24
2019-01-20T00:15:44.469Z,98.43
2019-01-20T00:16:44.476Z,98.52
2019-01-20T00:17:44.484Z,99.08
2019-01-20T00:18:44.491Z,98.43
2019-01-20T00:19:44.500Z,98.99
2019-01-20T00:20:44.511Z,98.61
2019-01-20T00:21:44.518Z,98.80
2019-01-20T00:22:44.519Z,98.61
2019-01-20T00:23:44.523Z,98.43
2019-01-20T00:24:44.537Z,98.71
2019-01-20T00:25:44.544Z,98.71
2019-01-20T00:26:44.549Z,99.56
2019-01-20T00:27:44.552Z,99.65
2019-01-20T00:28:44.563Z,99.46
2019-01-20T00:29:44.577Z,99.65
2019-01-20T00:30:44.577Z,99.37
2019-01-20T00:31:44.585Z,99.18
2019-01-20T00:32:44.591Z,99.75
2019-01-20T00:33:44.595Z,99.27
2019-01-20T00:34:44.818Z,99.75
2019-01-20T00:35:44.617Z,99.99
2019-01-20T00:36:44.619Z,99.99
2019-01-20T00:37:44.631Z,99.99
2019-01-20T00:38:44.636Z,99.99
2019-01-20T00:39:44.639Z,99.99
2019-01-20T00:40:44.648Z,99.99
2019-01-20T00:41:44.658Z,99.99
2019-01-20T00:42:44.666Z,99.99
2019-01-20T00:43:44.669Z,99.99
2019-01-20T00:44:44.676Z,99.99
2019-01-20T00:45:44.683Z,99.99
2019-01-20T00:46:44.695Z,99.99
2019-01-20T00:47:44.697Z,99.37
2019-01-20T00:48:44.708Z,99.27
2019-01-20T00:49:44.711Z,99.65
2019-01-20T00:50:44.718Z,98.80
2019-01-20T00:51:44.725Z,99.08
2019-01-20T00:52:44.735Z,98.90
2019-01-20T00:53:44.741Z,99.56
2019-01-20T00:54:44.746Z,99.37
2019-01-20T00:55:44.756Z,99.75
2019-01-20T00:56:44.764Z,98.52
2019-01-20T00:57:44.768Z,99.75
2019-01-20T00:58:44.778Z,99.56
2019-01-20T00:59:44.780Z,99.99
2019-01-20T01:00:44.791Z,99.99
2019-01-20T01:01:44.799Z,99.99
2019-01-20T01:02:44.806Z,99.99
2019-01-20T01:03:44.812Z,99.99
2019-01-20T01:04:44.820Z,99.99
2019-01-20T01:05:44.826Z,99.99
2019-01-20T01:06:44.831Z,99.99
2019-01-20T01:07:44.843Z,99.99
2019-01-20T01:08:44.851Z,99.99
2019-01-20T01:09:44.855Z,99.99
2019-01-20T01:10:44.859Z,99.99
2019-01-20T01:11:44.871Z,99.99
2019-01-20T01:12:44.874Z,99.99
2019-01-20T01:13:44.880Z,99.99
2019-01-20T01:14:44.896Z,99.99
2019-01-20T01:15:44.900Z,99.99
2019-01-20T01:16:44.901Z,99.99
2019-01-20T01:17:44.913Z,99.99
2019-01-20T01:18:44.915Z,99.99
2019-01-20T01:19:44.925Z,99.99
2019-01-20T01:20:44.930Z,99.99
2019-01-20T01:21:44.937Z,99.99
2019-01-20T01:22:44.947Z,99.99
2019-01-20T01:23:44.951Z,99.99
2019-01-20T01:24:44.963Z,99.99
2019-01-20T01:25:44.969Z,99.99
2019-01-20T01:26:45.025Z,99.99
2019-01-20T01:27:44.984Z,99.99
2019-01-20T01:28:44.989Z,99.99
2019-01-20T01:29:44.999Z,99.99
2019-01-20T01:30:45.002Z,99.99
2019-01-20T01:31:45.011Z,99.99
2019-01-20T01:32:45.029Z,99.99
2019-01-20T01:33:45.026Z,99.99
2019-01-20T01:34:45.033Z,99.99
2019-01-20T01:35:45.039Z,99.99
2019-01-20T01:36:45.044Z,99.99
2019-01-20T01:37:45.051Z,99.99
2019-01-20T01:38:45.094Z,99.99
2019-01-20T01:39:45.069Z,99.99
2019-01-20T01:40:45.074Z,99.99
2019-01-20T01:41:45.083Z,99.99
2019-01-20T01:42:45.089Z,99.99
2019-01-20T01:43:45.097Z,99.99
2019-01-20T01:44:45.111Z,99.99
2019-01-20T01:45:45.118Z,99.99
2019-01-20T01:46:45.116Z,99.99
2019-01-20T01:47:45.121Z,99.99
2019-01-20T01:48:45.134Z,99.99
2019-01-20T01:49:45.143Z,99.99
2019-01-20T01:50:45.148Z,99.99
2019-01-20T01:51:45.149Z,99.99
2019-01-20T01:52:45.161Z,99.99
2019-01-20T01:53:45.164Z,99.99
2019-01-20T01:54:45.176Z,99.99
2019-01-20T01:55:45.234Z,99.99
2019-01-20T01:56:45.189Z,99.99
2019-01-20T01:57:45.199Z,99.99
2019-01-20T01:58:45.201Z,99.99
2019-01-20T01:59:45.207Z,99.99
2019-01-20T02:00:45.213Z,99.99
2019-01-20T02:01:45.226Z,99.99
2019-01-20T02:02:45.232Z,99.99
2019-01-20T02:03:45.236Z,99.99
2019-01-20T02:04:45.266Z,99.99
2019-01-20T02:05:45.249Z,99.99
2019-01-20T02:06:45.272Z,99.99
2019-01-20T02:07:45.274Z,99.99
2019-01-20T02:08:45.273Z,99.99
2019-01-20T02:09:45.279Z,99.99
2019-01-20T02:10:45.289Z,99.99
2019-01-20T02:11:46.883Z,99.99
2019-01-20T02:12:45.300Z,99.99
2019-01-20T02:13:45.313Z,99.99
2019-01-20T02:14:45.317Z,99.99
2019-01-20T02:15:45.324Z,99.99
2019-01-20T02:16:45.330Z,99.99
2019-01-20T02:17:45.337Z,99.99
2019-01-20T02:18:45.344Z,99.99
2019-01-20T02:19:45.352Z,99.99
2019-01-20T02:20:45.366Z,99.99
2019-01-20T02:21:45.366Z,99.99
2019-01-20T02:22:45.387Z,99.99
2019-01-20T02:23:45.383Z,99.99
2019-01-20T02:24:45.387Z,99.99
2019-01-20T02:25:45.394Z,99.99
2019-01-20T02:26:45.405Z,99.99
2019-01-20T02:27:45.406Z,99.99
2019-01-20T02:28:45.411Z,99.99
2019-01-20T02:29:45.421Z,99.99
2019-01-20T02:30:45.428Z,99.99
2019-01-20T02:31:45.436Z,99.99
2019-01-20T02:32:45.443Z,99.99
2019-01-20T02:33:45.451Z,99.99
2019-01-20T02:34:45.459Z,99.99
2019-01-20T02:35:45.481Z,99.99
2019-01-20T02:36:45.483Z,99.99
2019-01-20T02:37:45.476Z,99.99
2019-01-20T02:38:45.486Z,99.99
2019-01-20T02:39:45.491Z,99.99
2019-01-20T02:40:45.503Z,99.99
2019-01-20T02:41:45.508Z,99.99
2019-01-20T02:42:45.512Z,99.99
2019-01-20T02:43:45.520Z,99.99
2019-01-20T02:44:45.527Z,99.99
2019-01-20T02:45:45.536Z,99.99
2019-01-20T02:46:45.542Z,99.99
2019-01-20T02:47:45.548Z,99.99
2019-01-20T02:48:45.558Z,99.99
2019-01-20T02:49:45.568Z,99.99
2019-01-20T02:50:45.572Z,99.99
2019-01-20T02:51:45.587Z,99.99
2019-01-20T02:52:45.598Z,99.99
2019-01-20T02:53:45.595Z,99.99
2019-01-20T02:54:45.600Z,99.99
2019-01-20T02:55:45.611Z,99.99
2019-01-20T02:56:45.611Z,99.99
2019-01-20T02:57:45.617Z,99.99
2019-01-20T02:58:45.643Z,99.99
2019-01-20T02:59:45.632Z,99.99
2019-01-20T03:00:45.645Z,99.99
2019-01-20T03:01:45.645Z,99.99
2019-01-20T03:02:45.662Z,99.99
2019-01-20T03:03:45.659Z,99.99
2019-01-20T03:04:45.671Z,99.99
2019-01-20T03:05:45.686Z,99.99
2019-01-20T03:06:45.687Z,99.99
2019-01-20T03:07:45.689Z,99.99
2019-01-20T03:08:45.706Z,99.99
2019-01-20T03:09:45.701Z,99.99
2019-01-20T03:10:45.707Z,99.99
2019-01-20T03:11:45.718Z,99.99
2019-01-20T03:12:45.729Z,99.99
2019-01-20T03:13:45.730Z,99.99
2019-01-20T03:14:45.854Z,99.99
2019-01-20T03:15:45.742Z,99.99
2019-01-20T03:16:45.752Z,99.99
2019-01-20T03:17:45.761Z,99.99
2019-01-20T03:18:45.762Z,99.99
2019-01-20T03:19:45.772Z,99.99
2019-01-20T03:20:45.780Z,99.99
2019-01-20T03:21:45.788Z,99.99
2019-01-20T03:22:45.801Z,99.99
2019-01-20T03:23:45.799Z,99.99
2019-01-20T03:24:45.817Z,99.99
2019-01-20T03:25:45.814Z,99.99
2019-01-20T03:26:45.823Z,99.99
2019-01-20T03:27:45.833Z,99.99
2019-01-20T03:28:45.832Z,99.99
2019-01-20T03:29:45.845Z,99.99
2019-01-20T03:30:45.850Z,99.99
2019-01-20T03:31:45.853Z,99.99
2019-01-20T03:32:45.869Z,99.99
2019-01-20T03:33:45.868Z,99.99
2019-01-20T03:34:45.879Z,99.99
2019-01-20T03:35:45.893Z,99.99
2019-01-20T03:36:45.956Z,99.99
2019-01-20T03:37:45.897Z,99.99
2019-01-20T03:38:45.902Z,99.99
2019-01-20T03:39:45.923Z,99.99
2019-01-20T03:40:45.915Z,99.99
2019-01-20T03:41:45.928Z,99.99
2019-01-20T03:42:45.932Z,99.99
2019-01-20T03:43:45.938Z,99.99
2019-01-20T03:44:45.945Z,99.99
2019-01-20T03:45:45.954Z,99.99
2019-01-20T03:46:45.957Z,99.99
2019-01-20T03:47:45.964Z,99.99
2019-01-20T03:48:45.972Z,99.99
2019-01-20T03:49:46.086Z,99.99
2019-01-20T03:50:46.396Z,99.99
2019-01-20T03:51:46.030Z,99.99
2019-01-20T03:52:46.002Z,99.99
2019-01-20T03:53:46.011Z,99.99
2019-01-20T03:54:46.015Z,99.99
2019-01-20T03:55:46.024Z,99.99
2019-01-20T03:56:46.030Z,99.99
2019-01-20T03:57:46.038Z,99.99
2019-01-20T03:58:46.043Z,99.99
2019-01-20T03:59:46.051Z,99.99
2019-01-20T04:00:46.056Z,99.99
2019-01-20T04:01:46.067Z,99.99
2019-01-20T04:02:46.072Z,99.99
2019-01-20T04:03:46.079Z,99.99
2019-01-20T04:04:46.079Z,99.99
2019-01-20T04:05:46.088Z,99.99
2019-01-20T04:06:46.105Z,99.99
2019-01-20T04:07:46.112Z,99.99
2019-01-20T04:08:46.109Z,99.99
2019-01-20T04:09:46.120Z,99.99
2019-01-20T04:10:46.124Z,99.99
2019-01-20T04:11:46.130Z,99.99
2019-01-20T04:12:46.134Z,99.99
2019-01-20T04:13:46.154Z,99.99
2019-01-20T04:14:46.155Z,99.99
2019-01-20T04:15:46.158Z,99.99
2019-01-20T04:16:46.161Z,99.99
2019-01-20T04:17:46.169Z,99.99
2019-01-20T04:18:46.181Z,99.99
2019-01-20T04:19:46.187Z,99.99
2019-01-20T04:20:46.193Z,99.99
2019-01-20T04:21:46.198Z,99.99
2019-01-20T04:22:46.207Z,99.99
2019-01-20T04:23:46.214Z,99.99
2019-01-20T04:24:46.230Z,99.99
2019-01-20T04:25:46.260Z,99.99
2019-01-20T04:26:46.249Z,99.99
2019-01-20T04:27:46.296Z,99.99
2019-01-20T04:28:46.248Z,99.99
2019-01-20T04:29:46.370Z,99.99
2019-01-20T04:30:46.259Z,99.99
2019-01-20T04:31:46.265Z,99.99
2019-01-20T04:32:46.288Z,99.99
2019-01-20T04:33:46.282Z,99.99
2019-01-20T04:34:46.287Z,99.99
2019-01-20T04:35:46.295Z,99.99
2019-01-20T04:36:46.300Z,99.99
2019-01-20T04:37:46.310Z,99.99
2019-01-20T04:38:46.322Z,99.99
2019-01-20T04:39:46.322Z,99.99
2019-01-20T04:40:46.448Z,99.99
2019-01-20T04:41:46.345Z,99.99
2019-01-20T04:42:46.355Z,99.99
2019-01-20T04:43:46.365Z,99.99
2019-01-20T04:44:46.360Z,99.99
2019-01-20T04:45:46.367Z,99.99
2019-01-20T04:46:46.374Z,99.99
2019-01-20T04:47:46.375Z,99.99
2019-01-20T04:48:46.387Z,99.99
2019-01-20T04:49:46.391Z,99.99
2019-01-20T04:50:46.400Z,99.99
2019-01-20T04:51:46.402Z,99.99
2019-01-20T04:52:46.412Z,99.99
2019-01-20T04:53:46.423Z,99.99
2019-01-20T04:54:46.425Z,99.99
2019-01-20T04:55:46.432Z,99.99
2019-01-20T04:56:46.447Z,99.99
2019-01-20T04:57:46.448Z,99.99
2019-01-20T04:58:46.460Z,99.99
2019-01-20T04:59:46.455Z,99.99
2019-01-20T05:00:46.462Z,99.99
2019-01-20T05:01:46.475Z,99.99
2019-01-20T05:02:46.482Z,99.99
2019-01-20T05:03:46.490Z,99.99
2019-01-20T05:04:47.208Z,99.99
2019-01-20T05:05:46.499Z,99.99
2019-01-20T05:06:46.505Z,99.99
2019-01-20T05:07:46.511Z,99.99
2019-01-20T05:08:46.523Z,99.99
2019-01-20T05:09:46.534Z,99.99
2019-01-20T05:10:46.536Z,99.99
2019-01-20T05:11:46.542Z,99.99
2019-01-20T05:12:46.547Z,99.99
2019-01-20T05:13:46.552Z,99.99
2019-01-20T05:14:46.560Z,99.99
2019-01-20T05:15:46.572Z,99.99
2019-01-20T05:16:46.577Z,99.99
2019-01-20T05:17:46.582Z,99.99
2019-01-20T05:18:46.593Z,99.99
2019-01-20T05:19:46.595Z,99.99
2019-01-20T05:20:46.599Z,99.99
2019-01-20T05:21:46.614Z,99.99
2019-01-20T05:22:46.623Z,99.99
2019-01-20T05:23:46.644Z,99.99
2019-01-20T05:24:46.630Z,99.99
2019-01-20T05:25:46.635Z,99.99
2019-01-20T05:26:46.645Z,99.99
2019-01-20T05:27:46.651Z,99.99
2019-01-20T05:28:46.659Z,99.99
2019-01-20T05:29:46.669Z,99.99
2019-01-20T05:30:46.688Z,99.99
2019-01-20T05:31:46.677Z,99.99
2019-01-20T05:32:46.679Z,99.99
2019-01-20T05:33:46.688Z,99.99
2019-01-20T05:34:46.695Z,99.99
2019-01-20T05:35:46.704Z,99.99
2019-01-20T05:36:46.708Z,99.99
2019-01-20T05:37:46.718Z,99.99
2019-01-20T05:38:46.723Z,99.99
2019-01-20T05:39:46.731Z,99.99
2019-01-20T05:40:46.736Z,99.99
2019-01-20T05:41:46.741Z,99.99
2019-01-20T05:42:46.890Z,99.99
2019-01-20T05:43:46.794Z,99.99
2019-01-20T05:44:46.762Z,99.99
2019-01-20T05:45:46.773Z,99.99
2019-01-20T05:46:46.782Z,99.99
2019-01-20T05:47:46.783Z,99.99
2019-01-20T05:48:46.798Z,99.99
2019-01-20T05:49:46.800Z,99.99
2019-01-20T05:50:46.813Z,99.99
2019-01-20T05:51:46.809Z,99.99
2019-01-20T05:52:46.813Z,99.99
2019-01-20T05:53:46.826Z,99.99
2019-01-20T05:54:46.831Z,99.99
2019-01-20T05:55:46.826Z,99.99
2019-01-20T05:56:46.832Z,99.99
2019-01-20T05:57:46.838Z,99.99
2019-01-20T05:58:46.848Z,99.99
2019-01-20T05:59:46.858Z,99.99
2019-01-20T06:00:46.861Z,99.99
2019-01-20T06:01:46.870Z,99.99
2019-01-20T06:02:46.906Z,99.99
2019-01-20T06:03:46.882Z,99.99
2019-01-20T06:04:46.888Z,99.99
2019-01-20T06:05:46.897Z,99.99
2019-01-20T06:06:46.902Z,99.99
2019-01-20T06:07:46.908Z,99.99
2019-01-20T06:08:46.915Z,99.99
2019-01-20T06:09:46.920Z,99.99
2019-01-20T06:10:46.928Z,99.99
2019-01-20T06:11:46.930Z,99.99
2019-01-20T06:12:53.901Z,99.99
2019-01-20T06:13:46.944Z,99.99
2019-01-20T06:14:46.951Z,99.99
2019-01-20T06:15:46.968Z,99.99
2019-01-20T06:16:46.968Z,99.99
2019-01-20T06:17:46.987Z,99.99
2019-01-20T06:18:46.980Z,99.99
2019-01-20T06:19:46.988Z,99.99
2019-01-20T06:20:46.993Z,99.99
2019-01-20T06:21:46.999Z,99.99
2019-01-20T06:22:47.009Z,99.99
2019-01-20T06:23:47.017Z,99.99
2019-01-20T06:24:47.021Z,99.99
2019-01-20T06:25:47.031Z,99.99
2019-01-20T06:26:47.031Z,99.99
2019-01-20T06:27:47.035Z,99.99
2019-01-20T06:28:47.044Z,99.99
2019-01-20T06:29:47.052Z,99.99
2019-01-20T06:30:47.055Z,99.99
2019-01-20T06:31:47.072Z,99.99
2019-01-20T06:32:47.067Z,99.99
2019-01-20T06:33:47.081Z,99.99
2019-01-20T06:34:48.822Z,99.99
2019-01-20T06:35:47.094Z,99.99
2019-01-20T06:36:47.101Z,99.99
2019-01-20T06:37:47.103Z,99.99
2019-01-20T06:38:47.113Z,99.99
2019-01-20T06:39:47.113Z,99.99
2019-01-20T06:40:47.126Z,99.99
2019-01-20T06:41:47.126Z,99.99
2019-01-20T06:42:47.134Z,99.99
2019-01-20T06:43:47.143Z,99.99
2019-01-20T06:44:47.150Z,99.99
2019-01-20T06:45:47.159Z,99.99
2019-01-20T06:46:47.160Z,99.99
2019-01-20T06:47:47.168Z,99.99
2019-01-20T06:48:47.176Z,99.99
2019-01-20T06:49:47.189Z,99.99
2019-01-20T06:50:47.236Z,99.99
2019-01-20T06:51:47.195Z,99.99
2019-01-20T06:52:47.205Z,99.99
2019-01-20T06:53:47.210Z,99.99
2019-01-20T06:54:47.213Z,99.99
2019-01-20T06:55:47.221Z,99.99
2019-01-20T06:56:47.231Z,99.99
2019-01-20T06:57:47.235Z,99.99
2019-01-20T06:58:47.240Z,99.99
2019-01-20T06:59:47.257Z,99.99
2019-01-20T07:00:47.253Z,99.99
2019-01-20T07:01:47.266Z,99.99
2019-01-20T07:02:47.267Z,99.99
2019-01-20T07:03:47.272Z,99.99
2019-01-20T07:04:47.280Z,99.99
2019-01-20T07:05:47.308Z,99.99
2019-01-20T07:06:47.292Z,99.99
2019-01-20T07:07:47.297Z,99.99
2019-01-20T07:08:47.306Z,99.99
2019-01-20T07:09:47.312Z,99.99
2019-01-20T07:10:47.319Z,99.99
2019-01-20T07:11:47.324Z,99.99
2019-01-20T07:12:47.336Z,99.99
2019-01-20T07:13:47.339Z,99.99
2019-01-20T07:14:47.345Z,99.99
2019-01-20T07:15:47.350Z,99.99
2019-01-20T07:16:47.362Z,99.99
2019-01-20T07:17:47.365Z,99.99
2019-01-20T07:18:47.370Z,99.99
2019-01-20T07:19:47.380Z,99.99
2019-01-20T07:20:47.395Z,99.99
2019-01-20T07:21:47.445Z,99.99
2019-01-20T07:22:47.397Z,99.99
2019-01-20T07:23:47.403Z,99.99
2019-01-20T07:24:47.409Z,99.99
2019-01-20T07:25:47.421Z,99.99
2019-01-20T07:26:47.422Z,99.99
2019-01-20T07:27:47.430Z,99.99
2019-01-20T07:28:47.437Z,99.99
2019-01-20T07:29:47.444Z,99.99
2019-01-20T07:30:47.453Z,99.99
2019-01-20T07:31:47.457Z,99.99
2019-01-20T07:32:47.464Z,99.99
2019-01-20T07:33:47.469Z,99.99
2019-01-20T07:34:47.480Z,99.99
2019-01-20T07:35:47.481Z,99.99
2019-01-20T07:36:47.543Z,99.99
2019-01-20T07:37:47.500Z,99.99
2019-01-20T07:38:47.507Z,99.99
2019-01-20T07:39:47.507Z,99.99
2019-01-20T07:40:47.513Z,99.99
2019-01-20T07:41:47.522Z,99.99
2019-01-20T07:42:47.532Z,99.99
2019-01-20T07:43:47.538Z,99.99
2019-01-20T07:44:47.545Z,99.99
2019-01-20T07:45:47.558Z,99.99
2019-01-20T07:46:47.556Z,99.99
2019-01-20T07:47:47.561Z,99.99
2019-01-20T07:48:47.570Z,99.99
2019-01-20T07:49:47.573Z,99.99
2019-01-20T07:50:47.829Z,99.99
2019-01-20T07:51:47.589Z,99.99
2019-01-20T07:52:47.696Z,99.99
2019-01-20T07:53:47.603Z,99.99
2019-01-20T07:54:47.614Z,99.99
2019-01-20T07:55:47.613Z,99.99
2019-01-20T07:56:47.621Z,99.99
2019-01-20T07:57:47.626Z,99.99
2019-01-20T07:58:47.639Z,99.99
2019-01-20T07:59:47.651Z,99.99
2019-01-20T08:00:47.645Z,99.99
2019-01-20T08:01:47.655Z,99.99
2019-01-20T08:02:47.664Z,99.99
2019-01-20T08:03:47.671Z,99.99
2019-01-20T08:04:47.677Z,99.99
2019-01-20T08:05:47.697Z,99.99
2019-01-20T08:06:47.686Z,99.99
2019-01-20T08:07:47.697Z,99.99
2019-01-20T08:08:47.701Z,99.99
2019-01-20T08:09:47.711Z,99.99
2019-01-20T08:10:47.737Z,99.99
2019-01-20T08:11:47.720Z,99.99
2019-01-20T08:12:47.727Z,99.99
2019-01-20T08:13:47.732Z,99.99
2019-01-20T08:14:47.742Z,99.99
2019-01-20T08:15:47.750Z,99.99
2019-01-20T08:16:47.752Z,99.99
2019-01-20T08:17:47.762Z,99.99
2019-01-20T08:18:47.769Z,99.99
2019-01-20T08:19:47.772Z,99.99
2019-01-20T08:20:47.781Z,99.99
2019-01-20T08:21:47.785Z,99.99
2019-01-20T08:22:47.792Z,99.99
2019-01-20T08:23:47.798Z,99.99
2019-01-20T08:24:47.811Z,99.99
2019-01-20T08:25:47.814Z,99.99
2019-01-20T08:26:48.105Z,99.99
2019-01-20T08:27:47.828Z,99.99
2019-01-20T08:28:47.836Z,99.99
2019-01-20T08:29:47.861Z,99.99
2019-01-20T08:30:47.847Z,99.99
2019-01-20T08:31:47.857Z,99.99
2019-01-20T08:32:47.899Z,99.99
2019-01-20T08:33:47.870Z,99.99
2019-01-20T08:34:47.875Z,99.99
2019-01-20T08:35:47.883Z,99.99
2019-01-20T08:36:47.891Z,99.99
2019-01-20T08:37:47.926Z,99.99
2019-01-20T08:38:47.906Z,99.99
2019-01-20T08:39:47.910Z,99.99
2019-01-20T08:40:47.914Z,99.99
2019-01-20T08:41:47.925Z,99.99
2019-01-20T08:42:47.931Z,99.99
2019-01-20T08:43:47.941Z,99.99
2019-01-20T08:44:47.943Z,99.99
2019-01-20T08:45:47.963Z,99.99
2019-01-20T08:46:47.956Z,99.99
2019-01-20T08:47:47.970Z,99.99
2019-01-20T08:48:47.973Z,99.99
2019-01-20T08:49:47.977Z,99.99
2019-01-20T08:50:47.984Z,99.99
2019-01-20T08:51:47.992Z,99.99
2019-01-20T08:52:47.999Z,99.99
2019-01-20T08:53:48.005Z,99.99
2019-01-20T08:54:48.010Z,99.99
2019-01-20T08:55:48.023Z,99.99
2019-01-20T08:56:48.042Z,99.99
2019-01-20T08:57:48.032Z,99.99
2019-01-20T08:58:48.044Z,99.99
2019-01-20T08:59:48.045Z,99.99
2019-01-20T09:00:48.058Z,99.99
2019-01-20T09:01:48.062Z,99.99
2019-01-20T09:02:48.066Z,99.99
2019-01-20T09:03:48.073Z,99.99
2019-01-20T09:04:48.090Z,99.99
2019-01-20T09:05:48.089Z,99.99
2019-01-20T09:06:48.095Z,99.99
2019-01-20T09:07:48.104Z,99.99
2019-01-20T09:08:48.112Z,99.99
2019-01-20T09:09:48.119Z,99.99
2019-01-20T09:10:48.132Z,99.99
2019-01-20T09:11:48.135Z,99.99
2019-01-20T09:12:48.145Z,99.99
2019-01-20T09:13:48.149Z,99.99
2019-01-20T09:14:48.156Z,99.99
2019-01-20T09:15:48.166Z,99.99
2019-01-20T09:16:48.173Z,99.99
2019-01-20T09:17:48.172Z,99.99
2019-01-20T09:18:48.181Z,99.99
2019-01-20T09:19:48.202Z,99.99
2019-01-20T09:20:48.201Z,99.94
2019-01-20T09:21:48.201Z,99.99
2019-01-20T09:22:48.227Z,99.99
2019-01-20T09:23:48.220Z,99.99
2019-01-20T09:24:48.226Z,99.99
2019-01-20T09:25:48.235Z,99.99
2019-01-20T09:26:48.238Z,99.84
2019-01-20T09:27:48.244Z,99.46
2019-01-20T09:28:48.257Z,99.56
2019-01-20T09:29:48.260Z,99.56
2019-01-20T09:30:48.271Z,98.99
2019-01-20T09:31:48.271Z,98.99
2019-01-20T09:32:48.288Z,98.99
2019-01-20T09:33:48.285Z,98.90
2019-01-20T09:34:48.306Z,99.27
2019-01-20T09:35:48.313Z,98.71
2019-01-20T09:36:48.309Z,98.24
2019-01-20T09:37:48.317Z,98.05
2019-01-20T09:38:48.322Z,98.05
2019-01-20T09:39:48.331Z,97.77
2019-01-20T09:40:48.337Z,98.43
2019-01-20T09:41:48.344Z,98.24
2019-01-20T09:42:48.350Z,97.77
2019-01-20T09:43:48.572Z,98.05
2019-01-20T09:44:48.369Z,97.20
2019-01-20T09:45:48.378Z,97.10
2019-01-20T09:46:48.383Z,97.39
2019-01-20T09:47:48.388Z,97.34
2019-01-20T09:48:48.397Z,96.87
2019-01-20T09:49:48.406Z,96.96
2019-01-20T09:50:48.414Z,96.87
2019-01-20T09:51:48.419Z,97.15
2019-01-20T09:52:48.427Z,97.63
2019-01-20T09:53:48.436Z,97.81
2019-01-20T09:54:48.439Z,97.34
2019-01-20T09:55:48.445Z,97.44
2019-01-20T09:56:48.458Z,96.78
2019-01-20T09:57:48.467Z,96.78
2019-01-20T09:58:48.470Z,96.78
2019-01-20T09:59:48.475Z,96.68
2019-01-20T10:00:48.485Z,96.02
2019-01-20T10:01:48.491Z,95.83
2019-01-20T10:02:48.498Z,95.54
2019-01-20T10:03:48.507Z,94.89
2019-01-20T10:04:48.517Z,94.89
2019-01-20T10:05:48.522Z,95.17
2019-01-20T10:06:48.537Z,94.60
2019-01-20T10:07:48.556Z,94.60
2019-01-20T10:08:48.544Z,94.51
2019-01-20T10:09:48.551Z,94.41
2019-01-20T10:10:48.556Z,94.32
2019-01-20T10:11:48.568Z,94.41
2019-01-20T10:12:48.578Z,94.70
2019-01-20T10:13:54.781Z,94.22
2019-01-20T10:14:48.626Z,93.84
2019-01-20T10:15:48.611Z,93.80
2019-01-20T10:16:48.605Z,93.66
2019-01-20T10:17:48.622Z,94.18
2019-01-20T10:18:48.620Z,93.89
2019-01-20T10:19:48.626Z,93.89
2019-01-20T10:20:48.642Z,93.61
2019-01-20T10:21:48.640Z,93.61
2019-01-20T10:22:48.650Z,93.51
2019-01-20T10:23:48.654Z,93.61
2019-01-20T10:24:48.672Z,92.85
2019-01-20T10:25:48.677Z,93.04
2019-01-20T10:26:48.684Z,93.13
2019-01-20T10:27:48.729Z,93.32
2019-01-20T10:28:48.697Z,92.47
2019-01-20T10:29:48.714Z,92.76
2019-01-20T10:30:48.736Z,92.47
2019-01-20T10:31:48.722Z,92.19
2019-01-20T10:32:48.729Z,91.15
2019-01-20T10:33:48.742Z,91.24
2019-01-20T10:34:48.742Z,91.24
2019-01-20T10:35:48.753Z,91.15
2019-01-20T10:36:48.757Z,91.43
2019-01-20T10:37:48.774Z,90.30
2019-01-20T10:38:48.789Z,90.11
2019-01-20T10:39:48.780Z,90.01
2019-01-20T10:40:48.800Z,90.39
2019-01-20T10:41:48.799Z,89.64
2019-01-20T10:42:48.813Z,89.83
2019-01-20T10:43:48.820Z,89.64
2019-01-20T10:44:48.821Z,89.45
2019-01-20T10:45:48.832Z,89.45
2019-01-20T10:46:48.842Z,89.83
2019-01-20T10:47:48.844Z,89.73
2019-01-20T10:48:48.855Z,90.44
2019-01-20T10:49:48.864Z,89.97
2019-01-20T10:50:48.871Z,88.26
2019-01-20T10:51:48.879Z,88.17
2019-01-20T10:52:48.885Z,88.07
2019-01-20T10:53:53.087Z,87.13
2019-01-20T10:54:48.918Z,85.99
2019-01-20T10:55:48.920Z,86.09
2019-01-20T10:56:48.935Z,86.75
2019-01-20T10:57:48.953Z,87.13
2019-01-20T10:58:48.937Z,86.66
2019-01-20T10:59:48.941Z,86.66
2019-01-20T11:00:49.153Z,86.75
2019-01-20T11:01:49.010Z,85.99
2019-01-20T11:02:48.971Z,85.99
2019-01-20T11:03:48.982Z,85.71
2019-01-20T11:04:48.988Z,86.37
2019-01-20T11:05:48.992Z,85.61
2019-01-20T11:06:49.001Z,85.71
2019-01-20T11:07:49.019Z,85.61
2019-01-20T11:08:49.027Z,85.42
2019-01-20T11:09:49.846Z,84.77
2019-01-20T11:10:49.034Z,84.77
2019-01-20T11:11:49.042Z,84.10
2019-01-20T11:12:49.047Z,84.01
2019-01-20T11:13:49.060Z,84.10
2019-01-20T11:14:49.064Z,84.58
2019-01-20T11:15:49.187Z,84.39
2019-01-20T11:16:49.084Z,83.63
2019-01-20T11:17:49.091Z,82.97
2019-01-20T11:18:49.100Z,81.83
2019-01-20T11:19:49.114Z,81.55
2019-01-20T11:20:49.114Z,82.59
2019-01-20T11:21:49.124Z,82.40
2019-01-20T11:22:49.130Z,82.91
2019-01-20T11:23:49.140Z,82.44
2019-01-20T11:24:49.150Z,81.68
2019-01-20T11:25:49.172Z,81.68
2019-01-20T11:26:49.188Z,81.12
2019-01-20T11:27:49.181Z,81.30
2019-01-20T11:28:49.202Z,81.49
2019-01-20T11:29:49.194Z,81.30
2019-01-20T11:30:49.199Z,81.40
2019-01-20T11:31:49.223Z,81.49
2019-01-20T11:32:49.219Z,81.68
2019-01-20T11:33:49.250Z,81.87
2019-01-20T11:34:49.254Z,81.59
2019-01-20T11:35:49.241Z,81.87
2019-01-20T11:36:49.256Z,81.77
2019-01-20T11:37:49.255Z,81.30
2019-01-20T11:38:49.273Z,80.64
2019-01-20T11:39:49.272Z,80.07
2019-01-20T11:40:49.280Z,79.41
2019-01-20T11:41:49.296Z,79.41
2019-01-20T11:42:49.325Z,78.94
2019-01-20T11:43:49.316Z,78.56
2019-01-20T11:44:49.311Z,78.85
2019-01-20T11:45:49.370Z,79.13
2019-01-20T11:46:49.332Z,78.56
2019-01-20T11:47:49.344Z,78.75
2019-01-20T11:48:49.349Z,78.18
2019-01-20T11:49:49.355Z,79.03
2019-01-20T11:50:49.367Z,78.85
2019-01-20T11:51:49.375Z,77.42
2019-01-20T11:52:49.383Z,77.61
2019-01-20T11:53:49.393Z,77.33
2019-01-20T11:54:49.401Z,76.57
2019-01-20T11:55:49.406Z,77.61
2019-01-20T11:56:49.430Z,78.46
2019-01-20T11:57:49.423Z,77.70
2019-01-20T11:58:49.437Z,76.48
2019-01-20T11:59:49.440Z,74.96
2019-01-20T12:00:49.497Z,75.53
2019-01-20T12:01:50.885Z,75.53
2019-01-20T12:02:49.515Z,75.05
2019-01-20T12:03:49.473Z,75.05
2019-01-20T12:04:49.521Z,74.68
2019-01-20T12:05:49.506Z,74.58
2019-01-20T12:06:49.505Z,74.21
2019-01-20T12:07:49.516Z,73.83
2019-01-20T12:08:49.520Z,74.68
2019-01-20T12:09:49.525Z,74.30
2019-01-20T12:10:49.543Z,74.11
2019-01-20T12:11:49.559Z,74.49
2019-01-20T12:12:49.567Z,73.73
2019-01-20T12:13:49.576Z,74.11
2019-01-20T12:14:49.582Z,74.21
2019-01-20T12:15:49.581Z,74.58
2019-01-20T12:16:49.587Z,73.73
2019-01-20T12:17:49.599Z,74.30
2019-01-20T12:18:50.484Z,74.49
2019-01-20T12:19:49.631Z,74.21
2019-01-20T12:20:49.630Z,73.35
2019-01-20T12:21:49.631Z,73.54
2019-01-20T12:22:49.639Z,73.45
2019-01-20T12:23:49.649Z,73.45
2019-01-20T12:24:49.657Z,72.78
2019-01-20T12:25:49.679Z,72.78
2019-01-20T12:26:49.726Z,73.07
2019-01-20T12:27:49.695Z,72.97
2019-01-20T12:28:49.689Z,72.97
2019-01-20T12:29:51.944Z,72.31
2019-01-20T12:30:49.709Z,72.41
2019-01-20T12:31:49.742Z,71.93
2019-01-20T12:32:49.722Z,72.31
2019-01-20T12:33:49.749Z,71.65
2019-01-20T12:34:49.741Z,71.36
2019-01-20T12:35:49.755Z,71.36
2019-01-20T12:36:49.768Z,71.36
2019-01-20T12:37:49.771Z,70.98
2019-01-20T12:39:49.785Z,70.98
2019-01-20T12:40:49.797Z,71.65
2019-01-20T12:41:49.802Z,71.55
2019-01-20T12:42:49.810Z,71.27
2019-01-20T12:43:49.824Z,71.17
2019-01-20T12:44:49.829Z,71.17
2019-01-20T12:45:49.844Z,71.17
2019-01-20T12:46:49.845Z,70.79
2019-01-20T12:47:49.866Z,70.42
2019-01-20T12:48:49.879Z,70.42
2019-01-20T12:49:49.893Z,70.42
2019-01-20T12:50:49.895Z,70.51
2019-01-20T12:51:49.937Z,70.89
2019-01-20T12:52:49.906Z,70.42
2019-01-20T12:53:49.906Z,70.23